Sainte-Henedine, Canada
Current Conditions -  °F | °C
As of 7:00 AM on Wednesday 28 Jan 2015 (Local Time) from CYQB Reporting Station
Broken Clouds Broken Clouds  
Wind Chill: -1°   Ceiling: 11000
Heat Index:   Visibility: 15mi
Dew Point:   Wind: 6mph
Humidity: 79%   Direction: 140°SE
Pressure: 30.01"   Gusts: NA
Location:  46.57°N, 70.98°W
Report Text: CYQB 281200Z 14005KT 15SM FEW025 BKN110 M13/M16 A3001 RMK SC1AC6 SLP169
Loading
Personal Weather Stations






























Interactive Weather Map New forecast layout! Learn more

10-Day Weather Forecast

Advertisements
Track Severe Weather on mobile